Time;durP1;ratioP1;P1;durP2;ratioP2;P2;SDS_P1;SDS_P2;PMS_P1;PMS_P2;Temp;Humidity;BMP_temperature;BMP_pressure;BME280_temperature;BME280_humidity;BME280_pressure;Samples;Min_cycle;Max_cycle;Signal;HPM_P1;HPM_P2
2020/12/28 00:00:31;;;;;;;9.25;4.08;;;;;;;4.33;79.59;98187.76;1755595;79;21146;-90
2020/12/28 00:03:01;;;;;;;11.28;4.20;;;;;;;4.32;79.97;98163.76;1793014;78;21180;-91
2020/12/28 00:05:29;;;;;;;9.33;3.85;;;;;;;4.32;79.97;98163.76;1785496;78;21160;-90
2020/12/28 00:07:57;;;;;;;10.32;4.03;;;;;;;4.37;80.00;98167.09;1749872;78;22327;-90
2020/12/28 00:10:24;;;;;;;11.60;4.50;;;;;;;4.35;80.32;98135.39;1752119;80;22251;-90
2020/12/28 00:12:53;;;;;;;11.20;5.10;;;;;;;4.37;80.19;98129.78;1757227;76;21229;-91
2020/12/28 00:15:26;;;;;;;14.28;5.08;;;;;;;4.38;80.49;98112.64;1761406;80;21165;-89
2020/12/28 00:17:58;;;;;;;12.45;5.28;;;;;;;4.38;80.68;98108.78;1770121;79;21229;-89
2020/12/28 00:20:28;;;;;;;14.33;6.35;;;;;;;4.44;79.95;98120.26;1763879;78;21201;-90
2020/12/28 00:22:56;;;;;;;14.58;6.45;;;;;;;4.38;80.63;98117.78;1697972;80;21629;-88
2020/12/28 00:25:25;;;;;;;14.00;5.92;;;;;;;4.38;80.06;98147.38;1691453;82;22323;-88
2020/12/28 00:27:55;;;;;;;12.75;5.67;;;;;;;4.30;81.52;98130.77;1769274;79;21170;-93
2020/12/28 00:30:22;;;;;;;16.60;5.95;;;;;;;4.32;80.82;98120.45;1733880;81;21181;-91
2020/12/28 00:32:50;;;;;;;14.15;5.50;;;;;;;4.32;80.83;98128.17;1791356;79;21277;-90
2020/12/28 00:35:18;;;;;;;13.55;5.87;;;;;;;4.30;80.72;98129.48;1800959;79;21134;-91
2020/12/28 00:37:47;;;;;;;17.75;6.40;;;;;;;4.29;81.42;98131.63;1705258;78;21182;-89
2020/12/28 00:40:14;;;;;;;12.75;5.33;;;;;;;4.28;80.96;98129.94;1697307;82;21168;-91
2020/12/28 00:42:41;;;;;;;13.38;5.78;;;;;;;4.27;81.38;98123.08;1730053;82;21210;-91
2020/12/28 00:45:09;;;;;;;13.05;5.00;;;;;;;4.27;82.21;98126.09;1728069;82;21197;-87
2020/12/28 00:47:37;;;;;;;10.23;4.37;;;;;;;4.27;82.08;98124.37;1729835;82;21174;-91
2020/12/28 00:50:06;;;;;;;9.20;3.85;;;;;;;4.28;81.69;98107.23;1747361;80;21356;-90
2020/12/28 00:52:35;;;;;;;7.03;3.35;;;;;;;4.31;81.84;98097.71;1819261;76;21185;-90
2020/12/28 00:55:04;;;;;;;11.93;4.50;;;;;;;4.33;82.42;98087.41;1814448;76;21275;-89
2020/12/28 00:57:32;;;;;;;24.05;8.43;;;;;;;4.08;82.13;98039.34;1791041;76;21320;-90
2020/12/28 01:00:00;;;;;;;19.60;6.65;;;;;;;4.40;81.73;98089.02;1730824;81;21189;-91
2020/12/28 01:02:29;;;;;;;13.08;5.10;;;;;;;4.43;81.99;98072.66;1742975;81;21733;-89
2020/12/28 01:04:58;;;;;;;10.85;4.53;;;;;;;4.42;81.97;98073.52;1747190;77;21629;-87
2020/12/28 01:07:27;;;;;;;9.20;4.12;;;;;;;4.40;81.61;98082.58;1768960;79;21184;-88
2020/12/28 01:09:57;;;;;;;10.68;4.80;;;;;;;4.41;81.37;98078.28;1767118;79;21172;-91
2020/12/28 01:12:24;;;;;;;8.05;3.55;;;;;;;4.45;81.06;98080.77;1751887;79;21224;-91
2020/12/28 01:14:53;;;;;;;11.55;4.60;;;;;;;4.43;81.03;98064.95;1765589;76;21132;-91
2020/12/28 01:17:23;;;;;;;10.50;4.92;;;;;;;4.42;80.84;98058.08;1744821;76;21211;-89
2020/12/28 01:19:52;;;;;;;11.57;4.65;;;;;;;4.39;81.11;98064.98;1764070;78;21295;-90
2020/12/28 01:22:20;;;;;;;13.28;5.50;;;;;;;4.39;81.08;98077.01;1727136;79;21182;-86
2020/12/28 01:24:47;;;;;;;9.08;4.62;;;;;;;4.40;81.11;98078.72;1689821;83;21214;-86
2020/12/28 01:27:15;;;;;;;11.40;4.55;;;;;;;4.38;80.55;98062.02;1711975;81;21185;-88
2020/12/28 01:29:43;;;;;;;9.83;4.30;;;;;;;4.35;81.34;98061.20;1734740;76;21523;-89
2020/12/28 01:32:10;;;;;;;9.58;3.72;;;;;;;4.37;80.80;98060.74;1761556;77;21162;-88
2020/12/28 01:34:58;;;;;;;11.63;4.35;;;;;;;4.37;80.41;98051.73;1782738;79;21197;-92
2020/12/28 01:37:26;;;;;;;13.53;4.85;;;;;;;4.34;81.22;98041.07;1758142;77;21182;-89
2020/12/28 01:39:53;;;;;;;10.78;4.22;;;;;;;4.40;80.73;98046.55;1747882;79;21233;-89
2020/12/28 01:42:21;;;;;;;11.22;4.40;;;;;;;4.40;80.90;98047.84;1734690;77;21247;-90
2020/12/28 01:44:51;;;;;;;11.20;4.80;;;;;;;4.42;80.89;98037.08;1792464;77;21178;-89
2020/12/28 01:47:20;;;;;;;10.10;4.15;;;;;;;4.43;81.04;98024.61;1760984;78;21717;-88
2020/12/28 01:49:48;;;;;;;9.78;4.33;;;;;;;4.39;81.37;98019.95;1752477;77;21138;-90
2020/12/28 01:52:17;;;;;;;9.08;4.35;;;;;;;4.44;80.75;98012.61;1734146;79;21331;-89
2020/12/28 01:54:45;;;;;;;15.45;5.53;;;;;;;4.42;81.51;98015.20;1756517;79;21277;-85
2020/12/28 01:57:14;;;;;;;10.75;5.37;;;;;;;4.41;81.40;98003.20;1736933;79;21181;-88
2020/12/28 01:59:44;;;;;;;13.80;5.55;;;;;;;4.36;81.55;98012.74;1760568;79;21696;-89
2020/12/28 02:02:15;;;;;;;12.37;5.05;;;;;;;4.35;81.44;98020.03;1731774;77;21711;-88
2020/12/28 02:04:43;;;;;;;13.60;6.20;;;;;;;4.32;81.51;98013.23;1748712;80;21193;-84
2020/12/28 02:07:13;;;;;;;15.53;7.12;;;;;;;4.29;80.89;98023.56;1725926;77;21200;-92
2020/12/28 02:09:46;;;;;;;15.13;6.22;;;;;;;4.24;80.81;98027.95;1716291;81;21174;-85
2020/12/28 02:12:14;;;;;;;15.20;5.12;;;;;;;4.15;82.10;98018.64;1763776;75;21322;-89
2020/12/28 02:14:42;;;;;;;12.07;4.92;;;;;;;3.83;82.39;97973.33;1794951;77;21157;-89
2020/12/28 02:17:20;;;;;;;12.30;4.65;;;;;;;4.04;81.99;98013.26;1739412;77;21234;-89
2020/12/28 02:19:52;;;;;;;11.00;4.70;;;;;;;4.02;81.00;98019.73;1721862;77;21162;-89
2020/12/28 02:22:23;;;;;;;13.40;5.47;;;;;;;3.98;81.71;98014.23;1737065;78;21165;-88
2020/12/28 02:24:52;;;;;;;13.83;5.15;;;;;;;3.96;82.62;98014.70;1718830;79;21233;-89
2020/12/28 02:27:19;;;;;;;12.00;4.58;;;;;;;3.95;82.38;98008.68;1737590;80;21190;-86
2020/12/28 02:29:46;;;;;;;11.73;4.55;;;;;;;3.95;82.57;98016.39;1737334;80;22118;-89
2020/12/28 02:32:16;;;;;;;13.00;4.78;;;;;;;3.97;82.22;97998.38;1741799;79;21332;-89
2020/12/28 02:34:59;;;;;;;13.08;5.08;;;;;;;4.01;82.44;97980.73;1819904;77;23064;-90
2020/12/28 02:37:28;;;;;;;28.55;9.03;;;;;;;3.96;82.61;97983.39;1821531;77;21174;-91
2020/12/28 02:39:58;;;;;;;23.62;9.85;;;;;;;3.97;82.46;97988.09;1726743;78;21589;-91
2020/12/28 02:42:26;;;;;;;30.32;9.98;;;;;;;4.00;82.36;97979.05;1669552;79;21576;-90
2020/12/28 02:45:12;;;;;;;16.60;7.15;;;;;;;3.99;82.12;97988.91;1712411;79;21173;-90
2020/12/28 02:47:59;;;;;;;14.15;5.47;;;;;;;3.96;81.84;97977.41;1705273;82;21143;-89
2020/12/28 02:50:44;;;;;;;23.05;8.18;;;;;;;3.86;83.03;97970.69;1784337;80;21135;-90
2020/12/28 02:53:30;;;;;;;30.70;10.35;;;;;;;3.84;82.46;97970.73;1727274;80;21545;-89
2020/12/28 02:56:16;;;;;;;20.30;8.00;;;;;;;3.79;82.26;97972.08;1643744;82;21222;-90
2020/12/28 02:59:02;;;;;;;15.85;6.80;;;;;;;3.70;82.30;97976.51;1686174;79;21361;-90
2020/12/28 03:01:50;;;;;;;14.90;6.65;;;;;;;3.59;82.80;97959.98;1668200;85;21497;-90
2020/12/28 03:04:37;;;;;;;18.10;6.80;;;;;;;3.53;83.36;97952.36;1667340;85;22429;-90
2020/12/28 03:07:23;;;;;;;17.02;6.90;;;;;;;3.47;82.79;97964.02;1713691;79;21173;-90
2020/12/28 03:10:08;;;;;;;11.28;5.10;;;;;;;3.41;83.48;97975.68;1687699;81;21156;-92
2020/12/28 03:12:55;;;;;;;13.72;5.40;;;;;;;3.33;83.07;97984.33;1692625;84;21208;-87
2020/12/28 03:15:43;;;;;;;12.30;4.92;;;;;;;3.28;82.69;97977.14;1661489;86;21331;-89
2020/12/28 03:18:30;;;;;;;12.65;5.22;;;;;;;3.22;82.72;97967.36;1652627;86;21208;-89
2020/12/28 03:21:16;;;;;;;11.22;4.87;;;;;;;3.16;83.20;97965.72;1661854;81;21271;-88
2020/12/28 03:24:02;;;;;;;12.88;5.15;;;;;;;3.16;82.77;97968.29;1710372;81;21594;-85
2020/12/28 03:26:48;;;;;;;11.88;4.47;;;;;;;3.16;84.12;97971.73;1716197;80;21201;-86
2020/12/28 03:29:35;;;;;;;11.63;4.55;;;;;;;3.18;83.38;97964.86;1674085;82;21359;-89
2020/12/28 03:32:21;;;;;;;19.52;5.30;;;;;;;3.21;83.31;97966.97;1692632;80;21830;-87
2020/12/28 03:35:07;;;;;;;12.05;4.65;;;;;;;3.24;83.64;97981.03;1675970;83;21151;-85
2020/12/28 03:38:00;;;;;;;10.63;4.33;;;;;;;3.24;83.58;97954.91;1701602;83;21305;-86
2020/12/28 03:40:45;;;;;;;9.33;4.30;;;;;;;3.25;83.73;97937.80;1714074;82;21369;-89
2020/12/28 03:43:33;;;;;;;11.40;4.90;;;;;;;3.23;83.76;97917.27;1716154;81;21265;-86
2020/12/28 03:46:21;;;;;;;10.15;4.55;;;;;;;3.23;83.85;97898.00;1716469;82;21199;-89
2020/12/28 03:49:07;;;;;;;12.03;5.62;;;;;;;3.20;83.77;97904.45;1727601;81;21259;-85
2020/12/28 03:51:54;;;;;;;12.40;5.08;;;;;;;2.92;83.35;97888.15;1690032;84;21584;-90
2020/12/28 03:54:40;;;;;;;14.58;5.97;;;;;;;3.06;84.97;97946.17;1711822;79;21225;-91
2020/12/28 03:57:27;;;;;;;11.25;4.37;;;;;;;2.99;85.74;97942.41;1638440;87;21336;-89
2020/12/28 04:00:15;;;;;;;11.93;5.30;;;;;;;3.01;86.91;97946.25;1730041;81;21183;-90
2020/12/28 04:02:44;;;;;;;16.30;7.47;;;;;;;3.03;84.32;97937.25;1639070;81;21312;-87
2020/12/28 04:26:52;;;;;;;11.83;6.58;;;;;;;3.62;83.97;97947.09;1809838;77;22671;-90
2020/12/28 04:29:20;;;;;;;11.83;6.40;;;;;;;3.52;84.01;97948.08;1738876;81;21165;-90
2020/12/28 04:31:47;;;;;;;13.40;6.60;;;;;;;3.46;84.23;97954.19;1738950;81;22032;-91
2020/12/28 04:34:14;;;;;;;12.58;5.80;;;;;;;3.41;84.01;97949.55;1748021;81;21214;-91
2020/12/28 04:36:41;;;;;;;11.48;5.62;;;;;;;3.28;84.22;97950.58;1761704;81;21181;-90
2020/12/28 04:39:09;;;;;;;12.82;6.05;;;;;;;3.16;83.36;97933.62;1755792;81;21145;-90
2020/12/28 04:41:36;;;;;;;12.43;6.70;;;;;;;3.02;83.82;97945.80;1749531;81;21354;-90
2020/12/28 04:44:04;;;;;;;18.37;5.85;;;;;;;2.92;83.93;97936.92;1744549;81;21188;-89
2020/12/28 04:46:32;;;;;;;16.12;5.83;;;;;;;2.81;83.87;97943.09;1763608;81;21287;-87
2020/12/28 04:49:00;;;;;;;16.15;6.00;;;;;;;2.67;84.11;97944.55;1736528;81;21270;-86
2020/12/28 04:51:27;;;;;;;47.00;16.32;;;;;;;2.57;84.18;97961.76;1767155;80;21386;-83
2020/12/28 04:53:58;;;;;;;36.03;14.45;;;;;;;2.49;83.47;97949.45;1764768;78;21248;-83
2020/12/28 04:56:27;;;;;;;20.87;9.20;;;;;;;2.41;84.06;97947.38;1726406;77;21123;31
2020/12/28 05:05:33;;;;;;;24.72;10.45;;;;;;;2.27;84.75;97935.98;1719457;80;21168;31
2020/12/28 05:11:25;;;;;;;22.82;9.15;;;;;;;2.20;84.97;97953.16;1752526;78;21151;31
2020/12/28 05:14:13;;;;;;;24.95;9.28;;;;;;;2.16;84.52;97947.64;1751238;78;21285;31
2020/12/28 05:19:52;;;;;;;24.02;7.97;;;;;;;2.13;85.05;97948.94;1711238;79;21289;31
2020/12/28 05:25:14;;;;;;;16.42;7.20;;;;;;;2.06;86.13;97955.84;1733538;81;21188;-86
2020/12/28 05:27:50;;;;;;;16.10;7.20;;;;;;;2.01;87.28;97969.56;1679810;83;21299;-89
2020/12/28 05:30:45;;;;;;;14.58;6.28;;;;;;;1.96;86.38;97973.02;1735313;81;21191;-86
2020/12/28 05:33:14;;;;;;;10.60;4.85;;;;;;;1.90;88.05;97971.80;1714772;80;21280;-84
2020/12/28 05:35:57;;;;;;;11.28;5.30;;;;;;;1.87;87.85;97973.13;1718025;79;21234;31
2020/12/28 05:38:27;;;;;;;18.12;6.28;;;;;;;1.86;86.85;97964.16;1671925;83;21313;-83
2020/12/28 05:41:04;;;;;;;11.22;5.05;;;;;;;1.85;86.58;97975.26;1671777;80;21202;-78
2020/12/28 05:46:42;;;;;;;20.90;9.15;;;;;;;1.81;86.67;97977.42;1716147;79;21270;-79
2020/12/28 06:01:59;;;;;;;20.20;7.22;;;;;;;1.86;86.98;97978.25;1728410;80;21218;31
2020/12/28 06:10:53;;;;;;;21.85;10.43;;;;;;;1.71;86.33;97965.11;1686698;82;21326;-79
2020/12/28 06:13:24;;;;;;;26.52;15.30;;;;;;;1.66;86.21;97967.72;1714963;83;21099;-84
2020/12/28 06:16:03;;;;;;;23.10;11.38;;;;;;;1.62;86.17;97978.86;1727158;80;21158;-84
2020/12/28 06:18:34;;;;;;;21.30;9.70;;;;;;;1.58;87.52;97972.05;1657659;80;21370;-84
2020/12/28 06:21:23;;;;;;;19.62;7.75;;;;;;;1.52;86.62;97969.54;1692922;80;21537;31
2020/12/28 06:24:11;;;;;;;19.23;7.33;;;;;;;1.46;86.84;97972.98;1746472;78;22496;31
2020/12/28 06:26:39;;;;;;;20.57;9.05;;;;;;;1.41;87.14;97976.00;1758570;78;21251;-83
2020/12/28 06:29:08;;;;;;;18.80;8.70;;;;;;;1.37;87.00;97991.84;1760976;78;21132;-77
2020/12/28 06:40:59;;;;;;;35.30;11.78;;;;;;;1.40;88.37;97999.92;1736981;79;21362;-79
2020/12/28 06:43:40;;;;;;;43.73;14.28;;;;;;;1.46;88.38;97991.36;1719701;78;21168;31
2020/12/28 06:49:42;;;;;;;36.38;12.40;;;;;;;1.51;88.09;97981.91;1716984;78;21244;31
2020/12/28 06:52:17;;;;;;;38.08;14.90;;;;;;;1.58;87.72;97986.98;1732691;78;21250;31
2020/12/28 06:54:45;;;;;;;30.10;12.33;;;;;;;1.66;87.31;97992.06;1709617;81;21169;-81
2020/12/28 06:57:13;;;;;;;49.30;18.70;;;;;;;1.69;87.71;98007.84;1703029;82;21127;-84
2020/12/28 06:59:41;;;;;;;56.10;21.80;;;;;;;1.72;87.39;98005.27;1680849;83;21300;-81
2020/12/28 07:02:09;;;;;;;54.05;18.55;;;;;;;1.74;87.54;98000.54;1680920;84;21788;-88
2020/12/28 07:08:32;;;;;;;52.05;16.87;;;;;;;1.80;87.83;98003.49;1728667;82;21233;-83
2020/12/28 07:11:19;;;;;;;53.45;15.20;;;;;;;1.84;87.59;97996.20;1721176;81;21325;-82
2020/12/28 07:13:48;;;;;;;41.60;14.98;;;;;;;1.86;86.86;98011.13;1679151;83;21796;-81
2020/12/28 07:16:19;;;;;;;40.05;14.23;;;;;;;1.89;87.05;98003.84;1744121;82;21143;-81
2020/12/28 07:18:54;;;;;;;52.60;16.87;;;;;;;1.94;86.90;98009.80;1725267;81;21171;-81
2020/12/28 07:21:22;;;;;;;25.12;10.95;;;;;;;1.99;87.51;98015.75;1718111;82;21250;-82
2020/12/28 07:23:52;;;;;;;33.90;13.32;;;;;;;1.99;87.70;98024.28;1779875;78;21174;-79
2020/12/28 07:26:20;;;;;;;41.10;14.65;;;;;;;2.02;87.80;98015.70;1771817;79;21322;-79
2020/12/28 07:32:05;;;;;;;33.78;13.60;;;;;;;2.17;87.32;98000.20;1700397;81;21194;-82
2020/12/28 07:34:34;;;;;;;27.27;11.68;;;;;;;2.29;87.23;98000.52;1721104;83;21260;-83
2020/12/28 07:40:05;;;;;;;26.65;11.60;;;;;;;2.48;87.31;98004.18;1632339;87;21994;-81
2020/12/28 07:42:35;;;;;;;30.52;12.10;;;;;;;2.56;87.63;98016.49;1650133;87;21198;-82
2020/12/28 07:48:31;;;;;;;22.65;10.10;;;;;;;2.72;87.23;98000.50;1723657;80;21126;-90
2020/12/28 08:05:49;;;;;;;19.52;8.98;;;;;;;3.12;87.73;98019.28;1780720;78;21188;-88
2020/12/28 08:08:37;;;;;;;22.95;9.88;;;;;;;3.18;86.77;98011.09;1765900;80;21150;-89
2020/12/28 08:11:05;;;;;;;26.37;11.85;;;;;;;3.23;86.67;98011.02;1714131;83;21157;-87
2020/12/28 08:13:56;;;;;;;21.45;8.63;;;;;;;3.28;86.65;98016.09;1707921;83;21363;-88
2020/12/28 08:23:43;;;;;;;18.95;8.90;;;;;;;3.49;86.54;97995.24;1712999;80;20129;-85
2020/12/28 08:30:48;;;;;;;21.70;9.13;;;;;;;3.74;86.13;98007.31;1732133;82;21284;-90
2020/12/28 08:43:49;;;;;;;28.25;12.60;;;;;;;4.32;85.85;98000.81;1693276;83;21672;-89
2020/12/28 08:46:28;;;;;;;28.17;13.78;;;;;;;4.49;85.86;97986.34;1704828;84;21142;-91
2020/12/28 08:48:56;;;;;;;28.42;12.80;;;;;;;4.61;85.84;97986.55;1761465;80;21149;-87
2020/12/28 08:51:24;;;;;;;32.45;14.83;;;;;;;4.72;85.70;97988.48;1764860;80;21141;-90
2020/12/28 08:53:51;;;;;;;33.13;15.48;;;;;;;4.80;85.33;97990.47;1761396;80;21169;-88
2020/12/28 08:59:21;;;;;;;21.45;10.53;;;;;;;4.93;84.88;97985.50;1711756;83;21605;-90
2020/12/28 09:05:30;;;;;;;21.87;10.15;;;;;;;4.91;84.56;97950.33;1658041;84;21173;-89
2020/12/28 09:07:58;;;;;;;20.68;10.63;;;;;;;5.20;84.25;97983.67;1675747;84;21168;-89
2020/12/28 09:10:27;;;;;;;18.98;9.75;;;;;;;5.26;84.33;97968.07;1741042;80;21177;-88
2020/12/28 09:13:07;;;;;;;26.37;14.40;;;;;;;5.33;84.34;97964.04;1747897;79;21342;-88
2020/12/28 09:15:41;;;;;;;27.77;13.48;;;;;;;5.41;84.26;97957.84;1733981;81;21190;-91
2020/12/28 09:19:08;;;;;;;20.70;9.35;;;;;;;5.50;84.10;97957.65;1633780;85;21218;31
2020/12/28 09:21:35;;;;;;;20.97;9.85;;;;;;;5.61;83.98;97959.97;1668754;84;21214;-89
2020/12/28 09:24:03;;;;;;;23.67;9.18;;;;;;;5.72;83.20;97967.02;1672829;85;21166;-89
2020/12/28 09:26:32;;;;;;;21.02;9.43;;;;;;;5.83;82.01;97964.17;1669737;84;21198;-88
2020/12/28 09:29:22;;;;;;;21.20;9.78;;;;;;;5.95;83.21;97966.52;1617978;88;21256;-87
2020/12/28 09:31:58;;;;;;;22.75;10.63;;;;;;;6.10;83.22;97962.23;1572640;88;21263;-90
2020/12/28 09:34:25;;;;;;;22.15;9.88;;;;;;;6.25;83.03;97958.44;1582581;90;21495;-87
2020/12/28 09:37:29;;;;;;;25.10;10.25;;;;;;;6.42;82.89;97951.98;1590829;89;22222;-91
2020/12/28 09:39:56;;;;;;;23.42;11.20;;;;;;;6.57;82.83;97947.25;1488763;95;21258;-89
2020/12/28 09:42:24;;;;;;;23.87;10.85;;;;;;;6.81;82.16;97942.30;1488885;94;21649;-90
2020/12/28 09:45:40;;;;;;;21.37;10.30;;;;;;;7.01;82.76;97943.02;1536570;87;21364;-90
2020/12/28 09:48:37;;;;;;;15.75;7.58;;;;;;;7.22;82.16;97937.67;1585504;89;21373;-89
2020/12/28 09:51:28;;;;;;;19.65;8.25;;;;;;;7.52;82.08;97942.34;1678305;85;21215;-90
2020/12/28 09:53:56;;;;;;;15.78;8.05;;;;;;;7.72;81.73;97935.70;1619550;87;21233;-88
2020/12/28 09:56:25;;;;;;;18.62;8.63;;;;;;;7.93;81.51;97924.62;1666402;85;21156;-85
2020/12/28 09:59:07;;;;;;;21.75;8.85;;;;;;;8.13;80.58;97913.59;1708305;82;21319;-90
2020/12/28 10:01:34;;;;;;;16.65;7.62;;;;;;;8.32;80.43;97925.94;1731945;82;21170;-90
2020/12/28 10:04:02;;;;;;;19.12;9.10;;;;;;;8.47;78.99;97929.30;1741617;82;21168;-89
2020/12/28 10:06:34;;;;;;;21.68;8.35;;;;;;;8.62;76.85;97918.85;1742510;80;21633;-93
2020/12/28 10:09:15;;;;;;;27.02;11.12;;;;;;;8.75;78.59;97906.28;1741974;79;21664;-86
2020/12/28 10:12:18;;;;;;;37.63;13.48;;;;;;;8.96;78.62;97905.48;1740796;81;21283;-84
2020/12/28 10:15:19;;;;;;;26.10;11.08;;;;;;;9.15;78.94;97909.97;1714192;81;21181;-93
2020/12/28 10:18:16;;;;;;;23.25;9.73;;;;;;;9.25;76.55;97913.92;1764447;79;21286;-90
2020/12/28 10:20:49;;;;;;;19.90;8.78;;;;;;;9.32;76.87;97911.92;1726606;81;21217;-85
2020/12/28 10:26:28;;;;;;;16.27;7.30;;;;;;;9.50;77.39;97901.28;1635800;86;21196;-91
2020/12/28 10:28:58;;;;;;;15.75;6.37;;;;;;;9.49;72.12;97888.77;1637226;86;21224;-89
2020/12/28 10:31:29;;;;;;;14.68;6.90;;;;;;;9.57;75.21;97883.28;1640220;86;21315;-85
2020/12/28 10:34:03;;;;;;;16.35;7.03;;;;;;;9.57;70.49;97874.20;1648589;86;21379;-85
2020/12/28 10:36:36;;;;;;;15.05;7.62;;;;;;;9.58;70.12;97871.14;1635113;86;21272;-86
2020/12/28 10:39:33;;;;;;;18.50;7.70;;;;;;;9.65;75.52;97864.77;1593028;88;21152;-86
2020/12/28 10:42:13;;;;;;;19.98;8.50;;;;;;;9.56;73.46;97856.46;1644348;86;21245;-86
2020/12/28 10:45:19;;;;;;;21.73;9.05;;;;;;;9.57;73.91;97848.25;1594960;89;21238;-86
2020/12/28 10:47:58;;;;;;;30.17;12.40;;;;;;;9.52;73.09;97838.50;1628287;86;21125;-86
2020/12/28 10:50:40;;;;;;;26.48;10.98;;;;;;;9.48;72.29;97848.16;1741779;80;21133;-88
2020/12/28 10:53:07;;;;;;;22.10;10.25;;;;;;;9.45;72.89;97843.11;1730569;82;21196;-90
2020/12/28 10:55:35;;;;;;;23.65;10.00;;;;;;;9.45;73.09;97840.94;1733823;81;21117;-90
2020/12/28 10:58:02;;;;;;;20.25;9.70;;;;;;;9.45;73.31;97840.51;1739038;81;21672;-91
2020/12/28 11:00:29;;;;;;;24.90;9.50;;;;;;;9.50;74.20;97837.72;1743372;80;21172;-87
2020/12/28 11:02:57;;;;;;;27.55;9.20;;;;;;;9.50;74.19;97831.23;1750768;81;21922;-90
2020/12/28 11:05:24;;;;;;;24.50;9.83;;;;;;;9.52;73.99;97832.02;1738436;81;21168;-90
2020/12/28 11:08:12;;;;;;;19.52;7.72;;;;;;;9.56;73.88;97832.27;1795333;78;21170;-87
2020/12/28 11:11:18;;;;;;;20.12;8.88;;;;;;;9.60;74.25;97838.19;1777305;80;21084;-86
2020/12/28 11:14:10;;;;;;;19.05;6.95;;;;;;;9.58;73.91;97825.27;1748967;80;21259;-85
2020/12/28 11:16:53;;;;;;;20.08;8.20;;;;;;;9.66;70.79;97842.66;1698986;83;21192;-92
2020/12/28 11:19:20;;;;;;;14.15;5.62;;;;;;;9.70;71.70;97833.00;1698029;83;21708;-89
2020/12/28 11:21:48;;;;;;;14.25;6.03;;;;;;;9.74;73.63;97832.80;1699556;83;21879;-90
2020/12/28 11:24:15;;;;;;;12.75;5.17;;;;;;;9.79;72.23;97838.25;1698003;83;21208;-92
2020/12/28 11:26:42;;;;;;;16.57;7.20;;;;;;;9.90;74.72;97836.89;1698051;84;21196;-91
2020/12/28 11:29:10;;;;;;;17.52;8.35;;;;;;;10.00;71.92;97828.72;1697732;84;21224;-90
2020/12/28 11:31:38;;;;;;;21.23;8.13;;;;;;;10.18;73.57;97828.37;1662855;84;21877;-90
2020/12/28 11:37:52;;;;;;;18.87;7.20;;;;;;;10.63;72.88;97832.02;1661038;86;21252;-86
2020/12/28 11:40:29;;;;;;;22.65;9.65;;;;;;;10.99;71.99;97830.39;1716313;82;21213;-89
2020/12/28 11:42:56;;;;;;;26.95;11.97;;;;;;;11.22;70.33;97824.95;1743256;82;21277;-85
2020/12/28 11:45:24;;;;;;;22.62;12.15;;;;;;;11.57;71.00;97824.98;1731857;81;21274;-85
2020/12/28 11:47:53;;;;;;;26.62;11.80;;;;;;;11.74;69.44;97827.59;1744577;82;21175;-85
2020/12/28 11:50:23;;;;;;;25.92;11.78;;;;;;;11.95;70.03;97814.42;1745864;81;21171;-86
2020/12/28 11:52:58;;;;;;;22.82;12.03;;;;;;;12.10;68.58;97811.52;1703732;84;21228;-87
2020/12/28 11:56:02;;;;;;;25.50;10.82;;;;;;;12.24;67.31;97810.80;1725216;83;21169;-86
2020/12/28 11:58:07;;;;;;;27.37;10.85;;;;;;;12.40;67.58;97822.09;1726544;83;21275;-86
2020/12/28 12:00:48;;;;;;;19.45;10.00;;;;;;;12.63;66.42;97825.23;1732073;81;21148;-86
2020/12/28 12:03:28;;;;;;;25.00;10.15;;;;;;;12.64;59.97;97817.80;1765660;81;21228;-86
2020/12/28 12:06:58;;;;;;;29.20;10.55;;;;;;;12.67;63.31;97816.31;1728476;81;21169;-85
2020/12/28 12:09:26;;;;;;;22.90;9.25;;;;;;;12.70;64.88;97814.86;1766330;80;21154;-89
2020/12/28 12:12:08;;;;;;;18.42;9.23;;;;;;;12.73;64.73;97807.72;1787509;79;21129;-87
2020/12/28 12:15:24;;;;;;;29.02;9.80;;;;;;;12.84;65.29;97801.91;1715986;80;21372;-92
2020/12/28 12:17:51;;;;;;;28.92;8.80;;;;;;;13.25;65.17;97805.30;1675773;82;21732;-88
2020/12/28 12:20:18;;;;;;;14.80;7.95;;;;;;;13.78;63.34;97794.47;1680039;82;21455;-89
2020/12/28 12:22:46;;;;;;;16.20;8.08;;;;;;;14.32;63.22;97799.48;1679529;84;21296;-88
2020/12/28 12:25:13;;;;;;;13.93;7.85;;;;;;;14.87;62.38;97802.25;1699778;83;22055;-89
2020/12/28 12:27:40;;;;;;;20.62;8.68;;;;;;;15.58;56.89;97791.13;1684245;82;21177;-90
2020/12/28 12:30:10;;;;;;;15.65;8.10;;;;;;;16.07;56.46;97786.55;1691778;83;21818;-85
2020/12/28 12:32:39;;;;;;;10.90;7.47;;;;;;;16.45;52.95;97785.69;1676952;82;21292;-84
2020/12/28 12:35:08;;;;;;;12.35;6.67;;;;;;;16.81;54.09;97770.49;1691655;82;21170;-86
2020/12/28 12:37:38;;;;;;;17.27;6.65;;;;;;;17.04;54.24;97775.37;1666731;86;21311;-86
2020/12/28 12:40:10;;;;;;;18.75;5.72;;;;;;;17.02;56.08;97778.59;1667445;85;21287;-87
2020/12/28 12:42:41;;;;;;;6.97;3.02;;;;;;;16.72;49.73;97780.77;1676263;85;21284;-85
2020/12/28 12:45:12;;;;;;;8.25;2.80;;;;;;;16.18;49.46;97777.97;1683560;85;21181;-86
2020/12/28 12:47:42;;;;;;;7.62;2.83;;;;;;;15.97;52.92;97781.09;1678675;85;21307;-86
2020/12/28 12:50:12;;;;;;;10.53;2.35;;;;;;;15.61;50.24;97778.67;1684124;85;21280;-85
2020/12/28 12:52:44;;;;;;;;;;;;;;;15.14;50.87;97791.81;1673769;85;21132;-86
2020/12/28 12:55:47;;;;;;;3.92;2.10;;;;;;;14.65;44.68;97789.20;1688804;85;20175;-86
2020/12/28 12:58:21;;;;;;;6.40;2.40;;;;;;;14.41;52.13;97787.61;1668219;80;21252;-85
2020/12/28 13:00:53;;;;;;;7.30;2.65;;;;;;;14.03;50.40;97782.95;1689436;85;21271;-86
2020/12/28 13:06:20;;;;;;;7.35;2.70;;;;;;;13.76;52.02;97776.75;1680386;85;21176;-90
2020/12/28 13:08:48;;;;;;;5.55;2.98;;;;;;;13.62;52.38;97771.03;1682060;84;21208;-86
2020/12/28 13:11:16;;;;;;;11.68;3.98;;;;;;;13.51;52.92;97772.97;1737359;82;21204;-85
2020/12/28 13:13:45;;;;;;;8.38;3.17;;;;;;;13.35;52.96;97779.98;1739496;81;21339;-86
2020/12/28 13:16:14;;;;;;;11.50;3.22;;;;;;;13.24;53.41;97782.72;1718795;82;21303;-85
2020/12/28 13:18:44;;;;;;;16.23;3.60;;;;;;;13.14;54.18;97775.03;1726019;81;21298;-86
2020/12/28 13:21:16;;;;;;;6.20;3.37;;;;;;;13.02;54.31;97775.73;1758172;81;21161;-86
2020/12/28 13:24:17;;;;;;;8.83;3.47;;;;;;;12.98;54.06;97784.19;1732438;82;21168;-90
2020/12/28 13:26:50;;;;;;;6.97;3.45;;;;;;;12.89;54.77;97792.07;1731369;82;21238;-86
2020/12/28 13:29:17;;;;;;;6.90;3.50;;;;;;;12.85;54.14;97794.91;1768256;80;21274;-86
2020/12/28 13:32:07;;;;;;;8.10;4.20;;;;;;;12.83;54.20;97802.84;1776565;80;21135;-85
2020/12/28 13:34:34;;;;;;;9.65;4.20;;;;;;;12.82;54.85;97795.93;1737672;81;21319;-89
2020/12/28 13:37:03;;;;;;;14.20;3.77;;;;;;;12.85;55.30;97803.60;1705992;82;21176;-91
2020/12/28 13:39:31;;;;;;;7.60;3.37;;;;;;;12.87;55.17;97790.02;1722295;83;21304;-86
2020/12/28 13:42:19;;;;;;;11.55;3.80;;;;;;;12.90;55.11;97787.22;1707232;82;21197;-86
2020/12/28 13:44:51;;;;;;;8.00;2.90;;;;;;;12.87;54.60;97790.02;1710427;83;21332;-86
2020/12/28 13:47:31;;;;;;;6.85;3.10;;;;;;;12.89;54.80;97789.47;1682617;82;21165;-87
2020/12/28 13:50:03;;;;;;;8.05;3.42;;;;;;;12.81;52.18;97790.36;1707979;83;21149;-85
2020/12/28 13:52:34;;;;;;;13.53;4.08;;;;;;;12.75;53.14;97786.75;1719572;82;21264;-85
2020/12/28 13:55:10;;;;;;;8.88;3.60;;;;;;;12.68;52.30;97785.42;1713367;81;21270;-91
2020/12/28 13:57:37;;;;;;;11.63;3.70;;;;;;;12.59;52.09;97776.78;1730463;82;22111;-88
2020/12/28 14:00:05;;;;;;;12.37;3.25;;;;;;;12.47;52.72;97777.84;1731674;82;21169;-90
2020/12/28 14:02:32;;;;;;;9.05;3.40;;;;;;;12.30;50.16;97773.52;1734819;82;21205;-89
2020/12/28 14:05:00;;;;;;;14.70;3.37;;;;;;;12.18;50.61;97777.25;1737652;82;21614;-89
2020/12/28 14:07:28;;;;;;;12.20;4.00;;;;;;;12.03;50.86;97777.58;1731930;82;21486;-91
2020/12/28 14:09:55;;;;;;;10.18;3.65;;;;;;;11.94;53.68;97768.02;1741762;80;21265;-86
2020/12/28 14:12:28;;;;;;;8.33;3.70;;;;;;;11.82;53.94;97762.58;1721620;78;21195;-91
2020/12/28 14:14:56;;;;;;;9.30;4.10;;;;;;;11.65;54.00;97757.75;1737870;82;21145;-89
2020/12/28 14:17:23;;;;;;;9.60;4.05;;;;;;;11.48;54.71;97761.66;1739092;82;21196;-89
2020/12/28 14:19:51;;;;;;;9.85;4.12;;;;;;;11.32;53.11;97768.95;1750107;80;21292;-87
2020/12/28 14:22:18;;;;;;;7.50;3.55;;;;;;;11.21;54.79;97775.13;1757503;79;21302;-91
2020/12/28 14:24:46;;;;;;;7.53;3.70;;;;;;;11.01;52.38;97788.25;1750545;78;21281;-91